Time;durP1;ratioP1;P1;durP2;ratioP2;P2;SDS_P1;SDS_P2;PMS_P1;PMS_P2;Temp;Humidity;BMP_temperature;BMP_pressure;BME280_temperature;BME280_humidity;BME280_pressure;Samples;Min_cycle;Max_cycle;Signal;HPM_P1;HPM_P2
2024/01/29 00:02:54;;;;;;;14.30;12.73;;;3.30;83.60;;;;;;12174241;29;20036;-75
2024/01/29 00:08:56;;;;;;;16.40;12.82;;;3.30;83.60;;;;;;12176474;29;20036;-74
2024/01/29 00:14:58;;;;;;;11.02;9.18;;;3.30;83.80;;;;;;12158842;29;20051;-74
2024/01/29 00:20:59;;;;;;;12.75;9.98;;;3.20;83.80;;;;;;12176045;29;20032;-74
2024/01/29 00:27:01;;;;;;;13.05;10.43;;;3.20;83.70;;;;;;12175070;29;20048;-74
2024/01/29 00:33:03;;;;;;;12.10;9.50;;;3.10;83.70;;;;;;12174673;29;20040;-74
2024/01/29 00:39:08;;;;;;;10.55;8.82;;;3.00;83.90;;;;;;12158629;29;20043;-74
2024/01/29 00:45:31;;;;;;;9.85;8.57;;;3.10;83.90;;;;;;12174211;29;20032;-74
2024/01/29 00:51:32;;;;;;;10.02;8.63;;;3.20;83.90;;;;;;12173850;29;20347;-74
2024/01/29 00:57:34;;;;;;;11.25;8.85;;;3.00;83.80;;;;;;12172510;29;20032;-74
2024/01/29 01:03:35;;;;;;;10.00;9.00;;;3.00;83.90;;;;;;12173941;29;20065;-74
2024/01/29 01:09:37;;;;;;;24.73;12.95;;;2.90;84.00;;;;;;12171128;29;20457;-74
2024/01/29 01:15:39;;;;;;;13.15;10.90;;;2.90;83.80;;;;;;12172665;29;20136;-74
2024/01/29 01:21:40;;;;;;;9.27;8.38;;;2.70;83.90;;;;;;12156568;29;20371;-74
2024/01/29 01:27:42;;;;;;;15.57;13.32;;;2.60;83.90;;;;;;12172261;29;20045;-74
2024/01/29 01:33:43;;;;;;;16.35;14.73;;;2.40;83.90;;;;;;12171409;29;20036;-74
2024/01/29 01:39:45;;;;;;;16.42;13.52;;;2.20;83.80;;;;;;12172338;29;20040;-74
2024/01/29 01:46:17;;;;;;;13.85;12.48;;;2.20;84.10;;;;;;12170321;29;20356;-74
2024/01/29 01:52:20;;;;;;;14.32;12.98;;;2.20;84.00;;;;;;12154298;29;20040;-74
2024/01/29 01:58:24;;;;;;;16.92;15.40;;;2.20;83.90;;;;;;12170909;29;20428;-74
2024/01/29 02:04:25;;;;;;;14.32;13.18;;;2.10;83.90;;;;;;12170645;29;20037;-74
2024/01/29 02:10:27;;;;;;;16.13;14.63;;;2.20;84.10;;;;;;12169128;29;20029;-74
2024/01/29 02:16:29;;;;;;;21.25;19.13;;;2.30;84.00;;;;;;12170240;29;20432;-74
2024/01/29 02:22:30;;;;;;;70.05;29.30;;;2.10;83.20;;;;;;12169732;29;20355;-74
2024/01/29 02:28:32;;;;;;;22.88;21.30;;;1.90;83.60;;;;;;12153616;29;20040;-74
2024/01/29 02:34:34;;;;;;;24.15;22.38;;;1.80;84.00;;;;;;12169560;29;20359;-74
2024/01/29 02:40:35;;;;;;;32.90;30.77;;;1.80;83.80;;;;;;12152676;29;20352;-75
2024/01/29 02:46:40;;;;;;;28.10;26.42;;;1.70;83.80;;;;;;12153114;29;20044;-74
2024/01/29 02:52:42;;;;;;;122.68;50.60;;;1.70;84.00;;;;;;12124258;24;20056;-74
2024/01/29 02:58:43;;;;;;;34.72;32.60;;;1.60;83.80;;;;;;12106586;29;20060;-74
2024/01/29 03:04:45;;;;;;;34.35;32.25;;;1.70;84.20;;;;;;12107099;29;20052;-74
2024/01/29 03:10:46;;;;;;;35.65;33.25;;;2.00;84.10;;;;;;12106170;29;20041;-74
2024/01/29 03:16:51;;;;;;;34.05;31.77;;;2.10;83.80;;;;;;12122161;29;20342;-74
2024/01/29 03:22:53;;;;;;;29.35;27.48;;;2.10;83.90;;;;;;12122009;29;20048;-74
2024/01/29 03:28:54;;;;;;;28.40;26.50;;;2.10;84.00;;;;;;12122558;29;20029;-74
2024/01/29 03:34:56;;;;;;;25.48;23.92;;;2.10;83.30;;;;;;12124909;29;20448;-74
2024/01/29 03:40:58;;;;;;;25.55;23.75;;;2.00;84.00;;;;;;12114147;29;20056;-74
2024/01/29 03:47:00;;;;;;;43.00;32.97;;;2.10;83.90;;;;;;12130282;29;20048;-74
2024/01/29 03:53:01;;;;;;;34.03;31.83;;;1.90;83.70;;;;;;12130339;29;20037;-74
2024/01/29 03:59:03;;;;;;;29.33;27.33;;;1.80;84.10;;;;;;12129880;29;20036;-74
2024/01/29 04:05:05;;;;;;;27.80;26.25;;;1.90;84.10;;;;;;12131501;29;20037;-74
2024/01/29 04:11:07;;;;;;;29.73;27.77;;;1.90;84.30;;;;;;12130019;29;20443;-74
2024/01/29 04:17:09;;;;;;;43.90;29.67;;;2.10;84.00;;;;;;12129756;29;20033;-74
2024/01/29 04:23:10;;;;;;;25.02;23.33;;;2.00;83.80;;;;;;12113033;29;20368;-74
2024/01/29 04:29:12;;;;;;;26.80;25.10;;;2.20;83.60;;;;;;12113210;29;20033;-74
2024/01/29 04:35:14;;;;;;;40.17;37.22;;;1.80;83.50;;;;;;12111667;29;20352;-74
2024/01/29 04:41:19;;;;;;;40.80;37.90;;;1.70;83.80;;;;;;12128693;29;20033;-74
2024/01/29 04:47:21;;;;;;;42.40;39.97;;;1.40;83.50;;;;;;12128326;29;20045;-74
2024/01/29 04:53:22;;;;;;;38.63;36.33;;;1.30;83.70;;;;;;12128100;29;20029;-74
2024/01/29 04:59:24;;;;;;;45.78;42.85;;;1.30;84.00;;;;;;12111433;29;20037;-74
2024/01/29 05:05:25;;;;;;;37.75;35.45;;;1.40;84.30;;;;;;12126155;29;20452;-74
2024/01/29 05:11:27;;;;;;;34.38;32.58;;;1.90;84.20;;;;;;12127602;29;20041;-74
2024/01/29 05:17:28;;;;;;;34.67;32.47;;;1.90;83.80;;;;;;12126664;29;20025;-74
2024/01/29 05:23:30;;;;;;;34.65;32.53;;;1.80;83.90;;;;;;12109924;29;20041;-74
2024/01/29 05:29:31;;;;;;;34.83;32.53;;;1.80;84.10;;;;;;12126585;29;20033;-74
2024/01/29 05:35:33;;;;;;;31.50;29.42;;;1.80;84.30;;;;;;12109575;29;20056;-74
2024/01/29 05:41:35;;;;;;;74.03;38.42;;;1.90;84.10;;;;;;12125316;29;20029;-74
2024/01/29 05:47:37;;;;;;;34.65;32.45;;;1.80;83.90;;;;;;12126399;29;20448;-74
2024/01/29 05:53:38;;;;;;;38.97;36.70;;;1.60;83.90;;;;;;12108753;29;20436;-75
2024/01/29 05:59:41;;;;;;;39.63;37.33;;;1.40;83.90;;;;;;12108828;29;20056;-74
2024/01/29 06:05:42;;;;;;;38.45;36.25;;;1.40;84.30;;;;;;12125743;29;20029;-74
2024/01/29 06:11:44;;;;;;;36.35;34.35;;;1.80;84.40;;;;;;12108491;29;20463;-74
2024/01/29 06:17:46;;;;;;;34.42;32.45;;;1.70;83.70;;;;;;12107481;29;20044;-74
2024/01/29 06:23:48;;;;;;;34.28;32.08;;;1.70;84.10;;;;;;12107768;29;20052;-73
2024/01/29 06:30:08;;;;;;;34.35;32.28;;;1.80;84.20;;;;;;12124864;29;20037;-73
2024/01/29 06:36:14;;;;;;;;;;;1.80;84.20;;;;;;12124369;29;20040;-73
2024/01/29 06:42:16;;;;;;;52.20;36.35;;;1.80;84.30;;;;;;12124362;29;20227;-73
2024/01/29 06:48:18;;;;;;;38.33;35.53;;;2.00;84.20;;;;;;12123502;29;20041;-72
2024/01/29 06:54:26;;;;;;;37.88;35.63;;;1.70;83.80;;;;;;12105996;29;20404;-73
2024/01/29 07:00:36;;;;;;;43.07;40.27;;;1.40;83.70;;;;;;12105861;29;20045;-72
2024/01/29 07:06:40;;;;;;;37.92;35.47;;;1.40;84.50;;;;;;12122319;29;20044;-73
2024/01/29 07:12:42;;;;;;;42.08;39.03;;;1.50;84.00;;;;;;12129530;29;20253;-72
2024/01/29 07:18:44;;;;;;;37.50;35.30;;;1.50;84.40;;;;;;12114717;29;20068;-73
2024/01/29 07:24:46;;;;;;;66.57;46.00;;;1.70;84.30;;;;;;12131240;29;20044;-72
2024/01/29 07:30:47;;;;;;;34.00;31.80;;;1.90;84.20;;;;;;12131006;29;20033;-72
2024/01/29 07:37:05;;;;;;;26.98;25.13;;;2.00;84.20;;;;;;12130742;29;20040;-73
2024/01/29 07:43:17;;;;;;;26.55;24.65;;;2.10;84.00;;;;;;12130428;29;20033;-73
2024/01/29 07:49:19;;;;;;;24.13;22.23;;;2.10;84.10;;;;;;12130088;29;20041;-73
2024/01/29 07:55:22;;;;;;;19.35;17.38;;;2.20;84.20;;;;;;12127998;29;20044;-73
2024/01/29 08:01:26;;;;;;;18.40;13.82;;;2.50;84.20;;;;;;12096450;29;20456;-74
2024/01/29 08:07:28;;;;;;;15.63;12.95;;;2.50;84.00;;;;;;12112700;29;20056;-73
2024/01/29 08:13:30;;;;;;;14.43;10.70;;;2.70;84.20;;;;;;12128554;29;20045;-73
2024/01/29 08:19:32;;;;;;;14.20;12.52;;;3.00;84.40;;;;;;12127234;29;20033;-73
2024/01/29 08:25:33;;;;;;;17.13;12.10;;;3.10;83.90;;;;;;12128466;29;20040;-73
2024/01/29 08:31:35;;;;;;;14.65;11.00;;;3.10;83.80;;;;;;12127956;29;20352;-74
2024/01/29 08:37:37;;;;;;;14.25;10.95;;;2.60;83.60;;;;;;12127881;29;20460;-73
2024/01/29 08:44:06;;;;;;;17.75;13.63;;;2.40;84.20;;;;;;12106381;29;20328;-74
2024/01/29 08:50:08;;;;;;;15.90;11.70;;;2.40;84.80;;;;;;12095129;29;20068;-75
2024/01/29 08:56:10;;;;;;;22.60;17.75;;;2.70;84.50;;;;;;12127033;29;20029;-75
2024/01/29 09:02:31;;;;;;;25.83;18.65;;;2.80;84.80;;;;;;12110710;29;20049;-75
2024/01/29 09:08:33;;;;;;;17.35;12.90;;;3.10;84.60;;;;;;12080420;29;20037;-75
2024/01/29 09:14:35;;;;;;;21.73;16.63;;;3.10;84.30;;;;;;12080063;29;20046;-75
2024/01/29 09:20:36;;;;;;;21.92;19.38;;;2.80;84.50;;;;;;12079909;29;20040;-74
2024/01/29 09:26:38;;;;;;;21.15;18.65;;;3.10;85.00;;;;;;12063173;29;20045;-74
2024/01/29 09:32:40;;;;;;;21.25;15.18;;;3.10;84.50;;;;;;12062094;29;20052;-74
2024/01/29 09:38:41;;;;;;;14.68;11.77;;;3.00;84.50;;;;;;12079110;29;20434;-74
2024/01/29 09:44:47;;;;;;;32.25;23.77;;;3.00;84.70;;;;;;12078804;29;20042;-74
2024/01/29 09:50:50;;;;;;;20.73;17.30;;;3.00;84.80;;;;;;12078410;29;20341;-74
2024/01/29 09:56:52;;;;;;;19.63;16.23;;;3.40;85.30;;;;;;12078322;29;20026;-74
2024/01/29 10:02:56;;;;;;;27.95;25.00;;;3.60;85.20;;;;;;12061741;29;20179;-73
2024/01/29 10:08:58;;;;;;;40.58;35.15;;;3.80;85.00;;;;;;12077699;29;20044;-73
2024/01/29 10:15:00;;;;;;;24.30;21.83;;;3.70;84.90;;;;;;12061525;29;20463;-74
2024/01/29 10:21:04;;;;;;;38.60;35.72;;;3.70;85.40;;;;;;12077241;29;20033;-73
2024/01/29 10:27:07;;;;;;;41.35;38.03;;;4.10;85.60;;;;;;12076978;29;20038;-73
2024/01/29 10:33:09;;;;;;;75.10;68.72;;;4.20;85.30;;;;;;12060272;29;20045;-74
2024/01/29 10:39:35;;;;;;;62.90;57.80;;;4.40;85.70;;;;;;12060062;29;20461;-73
2024/01/29 10:45:40;;;;;;;39.67;36.63;;;4.50;85.70;;;;;;12060255;29;20504;-73
2024/01/29 10:51:44;;;;;;;64.63;58.72;;;4.60;85.80;;;;;;12136246;24;20044;-73
2024/01/29 10:57:47;;;;;;;60.30;54.38;;;4.60;85.50;;;;;;12168568;29;20032;-74
2024/01/29 11:03:48;;;;;;;47.38;43.08;;;4.70;86.00;;;;;;12165191;29;20040;-73
2024/01/29 11:10:06;;;;;;;39.90;35.83;;;5.10;85.80;;;;;;12167079;29;20412;-74
2024/01/29 11:16:08;;;;;;;65.45;60.10;;;5.30;86.00;;;;;;12151577;29;20057;-74
2024/01/29 11:22:10;;;;;;;56.08;50.42;;;5.70;85.60;;;;;;12151809;29;20488;-74
2024/01/29 11:28:12;;;;;;;53.63;49.53;;;5.90;85.80;;;;;;12151383;29;20055;-73
2024/01/29 11:34:15;;;;;;;48.05;43.25;;;6.30;85.70;;;;;;12167886;29;20051;-74
2024/01/29 11:40:40;;;;;;;44.90;41.03;;;6.60;85.30;;;;;;12151240;29;20040;-74
2024/01/29 11:46:43;;;;;;;83.68;77.43;;;6.80;85.00;;;;;;12167204;29;20055;-73
2024/01/29 11:52:45;;;;;;;74.80;70.03;;;6.90;85.00;;;;;;12167441;29;20363;-73
2024/01/29 11:59:02;;;;;;;75.95;70.25;;;7.10;84.40;;;;;;12175239;29;20028;-73
2024/01/29 12:05:03;;;;;;;75.18;69.47;;;7.20;84.10;;;;;;12175800;29;20039;-73
2024/01/29 12:11:07;;;;;;;102.25;95.28;;;7.30;84.30;;;;;;12173935;29;20037;-73
2024/01/29 12:17:12;;;;;;;101.28;94.78;;;7.30;84.20;;;;;;12173594;29;20041;-73
2024/01/29 12:23:25;;;;;;;98.97;93.22;;;7.60;84.40;;;;;;12174121;29;20482;-73
2024/01/29 12:29:28;;;;;;;104.88;98.05;;;7.90;84.20;;;;;;12158206;29;20052;-73
2024/01/29 12:35:31;;;;;;;104.82;98.82;;;7.90;83.70;;;;;;12173404;29;20037;-74
2024/01/29 12:41:37;;;;;;;138.60;130.35;;;7.90;83.90;;;;;;12174379;29;20036;-74
2024/01/29 12:47:39;;;;;;;97.38;90.85;;;7.90;83.10;;;;;;12172301;29;20024;-74
2024/01/29 12:53:52;;;;;;;112.57;105.50;;;7.90;83.40;;;;;;12172974;29;20035;-73
2024/01/29 12:59:54;;;;;;;137.43;129.88;;;7.90;83.20;;;;;;12173470;29;20032;-74
2024/01/29 13:05:57;;;;;;;134.68;127.82;;;8.20;83.30;;;;;;12173134;29;20039;-73
2024/01/29 13:11:59;;;;;;;115.28;108.35;;;8.20;82.90;;;;;;12156137;29;20040;-73
2024/01/29 13:18:00;;;;;;;109.10;102.18;;;8.20;82.60;;;;;;12171367;29;20029;-73
2024/01/29 13:24:02;;;;;;;153.05;144.77;;;8.40;83.00;;;;;;12172321;29;20055;-73
2024/01/29 13:30:05;;;;;;;154.35;146.50;;;8.50;82.00;;;;;;12171739;29;20052;-74
2024/01/29 13:36:07;;;;;;;164.23;156.20;;;8.60;81.80;;;;;;12171755;29;20032;-73
2024/01/29 13:42:09;;;;;;;102.53;96.88;;;8.70;81.90;;;;;;12171554;29;20040;-74
2024/01/29 13:48:11;;;;;;;79.47;75.00;;;8.80;81.70;;;;;;12171329;29;20032;-74
2024/01/29 13:54:12;;;;;;;96.95;91.25;;;8.90;81.40;;;;;;12170873;29;20037;-74
2024/01/29 14:00:14;;;;;;;30.63;27.70;;;8.90;81.30;;;;;;12189535;29;20035;-73
2024/01/29 14:06:16;;;;;;;108.75;103.32;;;9.00;81.80;;;;;;12217323;29;20042;-73
2024/01/29 14:12:20;;;;;;;74.60;70.25;;;9.10;81.80;;;;;;12217077;29;20347;-73
2024/01/29 14:18:22;;;;;;;86.55;82.13;;;9.10;81.80;;;;;;12215378;29;20438;-73
2024/01/29 14:24:24;;;;;;;29.77;27.25;;;9.20;81.70;;;;;;12216710;29;20039;-73
2024/01/29 14:30:25;;;;;;;25.13;22.10;;;9.30;81.60;;;;;;12216373;29;20040;-73
2024/01/29 14:36:53;;;;;;;73.93;69.78;;;9.60;82.30;;;;;;12217527;29;20063;-73
2024/01/29 14:42:55;;;;;;;75.22;70.88;;;10.10;82.00;;;;;;12215917;29;20036;-73
2024/01/29 14:48:56;;;;;;;106.15;100.85;;;9.90;82.40;;;;;;12215651;29;20047;-74
2024/01/29 14:54:59;;;;;;;58.90;54.67;;;9.70;82.20;;;;;;12215532;29;20046;-73
2024/01/29 15:01:42;;;;;;;28.40;25.30;;;10.20;81.00;;;;;;12215509;29;20355;-73
2024/01/29 15:07:44;;;;;;;28.45;24.42;;;10.70;80.30;;;;;;12215397;29;20039;-74
2024/01/29 15:13:46;;;;;;;26.58;21.73;;;11.00;79.80;;;;;;12215790;29;20466;-74
2024/01/29 15:19:48;;;;;;;25.38;21.70;;;11.40;79.60;;;;;;12214043;29;20510;-74
2024/01/29 15:25:50;;;;;;;26.23;20.15;;;11.90;78.80;;;;;;12214017;29;20032;-74
2024/01/29 15:31:53;;;;;;;28.08;22.63;;;11.80;78.80;;;;;;12202839;29;20051;-73
2024/01/29 15:37:55;;;;;;;31.05;24.38;;;11.70;79.30;;;;;;12191839;29;20036;-73
2024/01/29 15:43:56;;;;;;;23.77;20.92;;;11.30;79.50;;;;;;12223743;29;20043;-74
2024/01/29 15:49:58;;;;;;;28.40;22.25;;;10.70;80.50;;;;;;12223598;29;20446;-74
2024/01/29 15:56:00;;;;;;;95.22;89.80;;;10.20;80.90;;;;;;12223191;29;20032;-74
2024/01/29 16:02:09;;;;;;;140.63;133.57;;;9.60;81.90;;;;;;12222956;29;20058;-74
2024/01/29 16:08:12;;;;;;;164.32;156.35;;;9.20;82.90;;;;;;12222770;29;20531;-74
2024/01/29 16:14:13;;;;;;;66.25;62.22;;;9.00;83.30;;;;;;12205906;29;20355;-74
2024/01/29 16:20:15;;;;;;;73.22;68.82;;;8.80;83.40;;;;;;12222133;29;20036;-74
2024/01/29 16:26:18;;;;;;;38.22;34.90;;;8.50;83.90;;;;;;12222496;29;20055;-74
2024/01/29 16:32:20;;;;;;;54.17;49.65;;;8.30;84.30;;;;;;12221854;29;20040;-74
2024/01/29 16:38:22;;;;;;;62.75;58.10;;;8.50;84.80;;;;;;12221313;29;20032;-74
2024/01/29 16:44:24;;;;;;;54.70;50.05;;;8.80;84.10;;;;;;12220657;29;20432;-74
2024/01/29 16:50:26;;;;;;;60.72;55.63;;;8.70;84.20;;;;;;12219874;29;20039;-74
2024/01/29 16:56:34;;;;;;;49.97;45.78;;;8.70;84.30;;;;;;12220519;29;20332;-74
2024/01/29 17:02:35;;;;;;;60.53;55.60;;;8.70;83.90;;;;;;12220328;29;20040;-74
2024/01/29 17:08:37;;;;;;;65.00;60.22;;;8.70;83.80;;;;;;12220708;29;20032;-74
2024/01/29 17:14:38;;;;;;;48.80;43.80;;;8.70;83.60;;;;;;12219929;29;20543;-74
2024/01/29 17:20:40;;;;;;;32.45;29.02;;;8.40;83.60;;;;;;12219639;29;20348;-74
2024/01/29 17:26:42;;;;;;;30.70;26.27;;;8.00;84.10;;;;;;12202499;29;20047;-74
2024/01/29 17:32:44;;;;;;;37.80;32.97;;;7.70;84.60;;;;;;12170295;29;20050;-74
2024/01/29 17:38:46;;;;;;;38.45;29.17;;;7.70;85.00;;;;;;12171995;29;20478;-74
2024/01/29 17:44:48;;;;;;;33.83;29.52;;;7.50;84.90;;;;;;12172359;29;20036;-74
2024/01/29 17:50:50;;;;;;;39.40;35.17;;;7.40;85.10;;;;;;12171533;29;20443;-73
2024/01/29 17:56:52;;;;;;;34.42;29.58;;;7.20;85.20;;;;;;12170214;29;20056;-73
2024/01/29 18:02:55;;;;;;;33.88;24.98;;;7.20;85.30;;;;;;12171409;29;20036;-73
2024/01/29 18:08:56;;;;;;;35.35;27.67;;;7.10;85.40;;;;;;12170596;29;20048;-73
2024/01/29 18:14:58;;;;;;;42.38;32.75;;;7.10;85.60;;;;;;12169015;29;20044;-73
2024/01/29 18:21:00;;;;;;;48.45;37.70;;;7.00;85.40;;;;;;12170058;29;20037;-73
2024/01/29 18:27:01;;;;;;;43.92;31.90;;;7.10;85.50;;;;;;12170406;29;20040;-73
2024/01/29 18:33:03;;;;;;;46.40;41.53;;;7.30;84.90;;;;;;12169480;29;20340;-74
2024/01/29 18:39:05;;;;;;;40.55;31.48;;;7.30;84.50;;;;;;12169404;29;20047;-74
2024/01/29 18:45:07;;;;;;;45.78;40.42;;;7.20;84.30;;;;;;12169226;29;20071;-74
2024/01/29 18:51:09;;;;;;;49.33;40.70;;;7.00;84.60;;;;;;12152545;23;20372;-73
2024/01/29 18:57:10;;;;;;;36.05;28.35;;;7.10;84.40;;;;;;12105835;29;20076;-73
2024/01/29 19:03:12;;;;;;;42.63;32.70;;;7.20;84.10;;;;;;12123780;29;20344;-73
2024/01/29 19:09:14;;;;;;;46.03;31.55;;;7.30;83.60;;;;;;12137672;29;20037;-73
2024/01/29 19:15:16;;;;;;;45.47;38.53;;;7.30;83.20;;;;;;12137532;29;20359;-74
2024/01/29 19:21:18;;;;;;;51.75;46.95;;;7.00;83.10;;;;;;12137453;29;20040;-74
2024/01/29 19:27:20;;;;;;;42.67;35.00;;;6.70;83.60;;;;;;12137247;29;20029;-74
2024/01/29 19:33:22;;;;;;;50.67;45.90;;;6.50;83.70;;;;;;12120813;29;20367;-74
2024/01/29 19:39:23;;;;;;;60.58;44.90;;;6.20;84.20;;;;;;12120409;29;20368;-74
2024/01/29 19:45:26;;;;;;;48.60;38.03;;;6.50;84.20;;;;;;12136945;29;20060;-74
2024/01/29 19:51:30;;;;;;;55.45;49.47;;;6.80;83.50;;;;;;12136920;29;20048;-74
2024/01/29 19:57:32;;;;;;;49.42;43.90;;;6.50;83.20;;;;;;12137201;29;20444;-74
2024/01/29 20:03:34;;;;;;;47.85;42.88;;;6.60;83.20;;;;;;12118535;29;20049;-75
2024/01/29 20:09:36;;;;;;;39.78;35.22;;;6.70;82.90;;;;;;12136552;29;20041;-74
2024/01/29 20:15:38;;;;;;;50.13;42.38;;;6.60;82.70;;;;;;12133817;29;20444;-74
2024/01/29 20:21:40;;;;;;;57.03;51.83;;;6.50;82.90;;;;;;12129073;29;20045;-73
2024/01/29 20:27:48;;;;;;;43.63;35.95;;;6.60;82.60;;;;;;12128770;29;20444;-74
2024/01/29 20:33:53;;;;;;;42.35;37.72;;;6.50;82.50;;;;;;12128372;29;20041;-73
2024/01/29 20:39:55;;;;;;;62.92;58.22;;;6.50;82.30;;;;;;12128209;29;20040;-74
2024/01/29 20:45:57;;;;;;;43.38;37.67;;;6.10;82.30;;;;;;12137025;29;20040;-74
2024/01/29 20:52:00;;;;;;;52.65;48.10;;;5.80;83.00;;;;;;12127147;29;20037;-74
2024/01/29 20:58:01;;;;;;;39.38;35.17;;;5.70;83.40;;;;;;12127457;29;20041;-74
2024/01/29 21:04:04;;;;;;;52.35;47.60;;;6.00;83.20;;;;;;12111145;29;20432;-74
2024/01/29 21:10:21;;;;;;;47.13;43.13;;;6.20;82.50;;;;;;12126903;29;20041;-74
2024/01/29 21:16:55;;;;;;;35.00;31.65;;;6.30;82.00;;;;;;12126494;29;20033;-74
2024/01/29 21:22:56;;;;;;;45.50;41.67;;;6.20;82.00;;;;;;12126310;29;20448;-74
2024/01/29 21:29:06;;;;;;;63.65;58.78;;;6.20;81.90;;;;;;12123840;29;20044;-74
2024/01/29 21:35:10;;;;;;;44.72;37.30;;;6.00;82.10;;;;;;12126352;29;20044;-74
2024/01/29 21:41:12;;;;;;;59.17;53.15;;;6.10;82.00;;;;;;12124934;29;20041;-74
2024/01/29 21:47:13;;;;;;;56.50;51.05;;;6.20;82.20;;;;;;12108715;29;20057;-74
2024/01/29 21:53:15;;;;;;;53.55;48.70;;;6.30;82.50;;;;;;12125273;29;20041;-74
2024/01/29 21:59:17;;;;;;;49.03;44.55;;;6.20;82.00;;;;;;12108281;29;20040;-74
2024/01/29 22:05:19;;;;;;;40.33;34.53;;;6.20;81.80;;;;;;12124599;29;20356;-74
2024/01/29 22:11:21;;;;;;;46.45;41.78;;;6.10;81.60;;;;;;12124494;29;20041;-74
2024/01/29 22:17:23;;;;;;;40.33;36.30;;;5.90;81.30;;;;;;12114743;29;20034;-74
2024/01/29 22:23:24;;;;;;;48.05;44.05;;;5.70;81.80;;;;;;12078238;29;20493;-74
2024/01/29 22:29:30;;;;;;;47.83;38.80;;;5.80;81.60;;;;;;12078060;29;20042;-74
2024/01/29 22:36:06;;;;;;;37.95;33.97;;;5.70;81.60;;;;;;12076036;29;20042;-74
2024/01/29 22:42:08;;;;;;;36.67;32.92;;;5.50;81.50;;;;;;12046079;29;20060;-74
2024/01/29 22:48:09;;;;;;;42.88;38.50;;;5.50;81.60;;;;;;12077707;29;20042;-74
2024/01/29 22:54:11;;;;;;;48.92;43.92;;;5.60;81.50;;;;;;12076218;29;20045;-74
2024/01/29 23:00:17;;;;;;;56.67;51.55;;;5.70;81.30;;;;;;12061314;29;20033;-74
2024/01/29 23:06:22;;;;;;;46.65;42.03;;;5.70;81.10;;;;;;12077099;29;20034;-74
2024/01/29 23:12:24;;;;;;;36.33;32.40;;;5.70;80.90;;;;;;12076791;29;20033;-74
2024/01/29 23:18:27;;;;;;;44.40;39.80;;;5.70;80.80;;;;;;12060401;29;20042;-74
2024/01/29 23:24:29;;;;;;;44.70;40.22;;;5.50;80.70;;;;;;12060071;29;20048;-74
2024/01/29 23:30:31;;;;;;;41.42;37.67;;;5.50;80.90;;;;;;12076210;29;20037;-74
2024/01/29 23:36:32;;;;;;;43.47;39.47;;;5.40;80.90;;;;;;12075763;29;20037;-73
2024/01/29 23:42:34;;;;;;;52.38;47.55;;;5.50;80.80;;;;;;12075650;29;20033;-74
2024/01/29 23:48:35;;;;;;;51.20;46.55;;;5.50;80.70;;;;;;12075484;29;20045;-74
2024/01/29 23:54:37;;;;;;;44.65;40.45;;;5.50;80.70;;;;;;12083476;29;20037;-74
